createdAt,value
2022-08-27T00:01:00.822Z,100156.97
2022-08-27T00:03:30.780Z,100153.66
2022-08-27T00:05:59.441Z,100155.13
2022-08-27T00:08:28.236Z,100148.31
2022-08-27T00:10:57.519Z,100142.47
2022-08-27T00:13:26.202Z,100138.78
2022-08-27T00:15:55.131Z,100140.81
2022-08-27T00:18:23.978Z,100132.16
2022-08-27T00:20:53.930Z,100137.50
2022-08-27T00:23:22.800Z,100131.28
2022-08-27T00:25:52.850Z,100132.16
2022-08-27T00:28:21.770Z,100133.13
2022-08-27T00:30:50.640Z,100119.13
2022-08-27T00:33:19.495Z,100122.63
2022-08-27T00:35:48.249Z,100125.63
2022-08-27T00:38:20.460Z,100129.50
2022-08-27T00:40:50.715Z,100134.19
2022-08-27T00:43:24.076Z,100135.38
2022-08-27T00:45:56.558Z,100139.88
2022-08-27T00:48:31.368Z,100139.56
2022-08-27T00:51:00.061Z,100140.09
2022-08-27T00:53:34.420Z,100136.94
2022-08-27T00:56:10.158Z,100137.59
2022-08-27T00:58:43.578Z,100130.97
2022-08-27T01:01:17.269Z,100130.31
2022-08-27T01:03:50.813Z,100134.09
2022-08-27T01:06:23.226Z,100129.97
2022-08-27T01:09:01.684Z,100129.97
2022-08-27T01:11:31.287Z,100130.78
2022-08-27T01:14:01.394Z,100120.66
2022-08-27T01:16:36.836Z,100124.50
2022-08-27T01:19:17.440Z,100115.50
2022-08-27T01:21:58.680Z,100115.81
2022-08-27T01:24:41.588Z,100113.50
2022-08-27T01:27:18.678Z,100127.34
2022-08-27T01:29:48.022Z,100125.69
2022-08-27T01:32:22.474Z,100110.34
2022-08-27T01:34:52.468Z,100115.03
2022-08-27T01:37:23.959Z,100114.53
2022-08-27T01:39:59.148Z,100114.53
2022-08-27T01:42:34.640Z,100113.19
2022-08-27T01:45:08.452Z,100112.69
2022-08-27T01:47:38.746Z,100120.38
2022-08-27T01:50:13.748Z,100113.72
2022-08-27T01:52:42.528Z,100119.72
2022-08-27T01:55:18.508Z,100119.72
2022-08-27T01:57:48.000Z,100117.72
2022-08-27T02:00:22.135Z,100115.06
2022-08-27T02:02:51.666Z,100116.25
2022-08-27T02:05:21.828Z,100107.25
2022-08-27T02:07:51.235Z,100112.75
2022-08-27T02:10:26.233Z,100110.56
2022-08-27T02:12:55.162Z,100109.06
2022-08-27T02:15:25.332Z,100108.06
2022-08-27T02:17:54.282Z,100112.25
2022-08-27T02:20:24.211Z,100114.72
2022-08-27T02:22:56.883Z,100108.72
2022-08-27T02:25:29.040Z,100110.88
2022-08-27T02:28:00.701Z,100113.22
2022-08-27T02:30:32.839Z,100109.03
2022-08-27T02:33:02.735Z,100119.34
2022-08-27T02:35:34.991Z,100115.84
2022-08-27T02:38:03.828Z,100121.34
2022-08-27T02:40:34.798Z,100117.97
2022-08-27T02:43:03.483Z,100124.13
2022-08-27T02:45:32.213Z,100118.31
2022-08-27T02:48:04.322Z,100123.66
2022-08-27T02:50:33.719Z,100118.63
2022-08-27T02:53:03.387Z,100120.59
2022-08-27T02:55:33.204Z,100123.41
2022-08-27T02:58:04.117Z,100116.41
2022-08-27T03:00:33.037Z,100115.28
2022-08-27T03:03:03.554Z,100115.59
2022-08-27T03:05:32.237Z,100113.19
2022-08-27T03:08:01.020Z,100118.72
2022-08-27T03:10:29.915Z,100112.81
2022-08-27T03:12:58.649Z,100113.69
2022-08-27T03:15:29.189Z,100115.47
2022-08-27T03:18:15.591Z,100108.56
2022-08-27T03:20:48.079Z,100114.47
2022-08-27T03:23:18.817Z,100112.31
2022-08-27T03:25:52.951Z,100111.09
2022-08-27T03:28:23.833Z,100106.72
2022-08-27T03:30:58.577Z,100102.09
2022-08-27T03:33:28.727Z,100102.91
2022-08-27T03:35:57.573Z,100109.13
2022-08-27T03:38:27.326Z,100104.22
2022-08-27T03:40:56.049Z,100110.31
2022-08-27T03:43:25.337Z,100108.22
2022-08-27T03:46:00.758Z,100103.88
2022-08-27T03:48:32.840Z,100101.38
2022-08-27T03:51:06.699Z,100097.72
2022-08-27T03:53:37.791Z,100107.31
2022-08-27T03:56:08.307Z,100099.81
2022-08-27T03:58:39.015Z,100104.44
2022-08-27T04:01:10.529Z,100100.50
2022-08-27T04:03:39.357Z,100098.41
2022-08-27T04:06:08.829Z,100099.41
2022-08-27T04:08:37.521Z,100109.75
2022-08-27T04:11:08.734Z,100108.44
2022-08-27T04:13:38.309Z,100110.53
2022-08-27T04:16:08.916Z,100110.03
2022-08-27T04:18:37.577Z,100113.69
2022-08-27T04:21:11.282Z,100103.56
2022-08-27T04:23:40.501Z,100113.03
2022-08-27T04:26:11.061Z,100102.09
2022-08-27T04:28:39.797Z,100107.44
2022-08-27T04:31:11.975Z,100106.16
2022-08-27T04:33:51.326Z,100107.06
2022-08-27T04:36:21.914Z,100112.13
2022-08-27T04:38:51.351Z,100116.25
2022-08-27T04:41:25.111Z,100114.75
2022-08-27T04:43:57.579Z,100114.88
2022-08-27T04:46:30.976Z,100112.25
2022-08-27T04:49:02.721Z,100112.63
2022-08-27T04:51:36.804Z,100110.78
2022-08-27T04:54:08.167Z,100110.13
2022-08-27T04:56:38.096Z,100107.66
2022-08-27T04:59:10.144Z,100106.00
2022-08-27T05:01:42.387Z,100105.84
2022-08-27T05:04:14.728Z,100102.00
2022-08-27T05:06:45.443Z,100109.84
2022-08-27T05:09:16.747Z,100107.84
2022-08-27T05:11:47.681Z,100107.06
2022-08-27T05:14:17.279Z,100106.72
2022-08-27T05:16:47.957Z,100112.19
2022-08-27T05:19:17.473Z,100107.88
2022-08-27T05:21:49.552Z,100101.06
2022-08-27T05:24:19.163Z,100105.72
2022-08-27T05:26:49.974Z,100101.09
2022-08-27T05:29:19.014Z,100101.38
2022-08-27T05:31:49.168Z,100104.22
2022-08-27T05:34:24.643Z,100111.81
2022-08-27T05:36:56.266Z,100108.47
2022-08-27T05:39:24.992Z,100113.63
2022-08-27T05:41:58.539Z,100106.91
2022-08-27T05:44:42.723Z,100106.50
2022-08-27T05:47:13.027Z,100105.47
2022-08-27T05:49:41.814Z,100119.09
2022-08-27T05:52:12.317Z,100105.97
2022-08-27T05:54:41.084Z,100111.16
2022-08-27T05:57:10.144Z,100119.38
2022-08-27T05:59:56.565Z,100119.38
2022-08-27T06:02:27.210Z,100114.00
2022-08-27T06:04:55.931Z,100124.56
2022-08-27T06:07:24.615Z,100113.50
2022-08-27T06:09:53.435Z,100110.78
2022-08-27T06:12:28.292Z,100108.47
2022-08-27T06:14:57.707Z,100116.38
2022-08-27T06:17:28.003Z,100115.44
2022-08-27T06:19:57.593Z,100115.44
2022-08-27T06:22:26.561Z,100110.44
2022-08-27T06:24:55.193Z,100114.13
2022-08-27T06:27:23.953Z,100124.34
2022-08-27T06:29:52.738Z,100116.44
2022-08-27T06:32:21.478Z,100116.13
2022-08-27T06:34:51.613Z,100124.88
2022-08-27T06:37:20.405Z,100118.09
2022-08-27T06:39:49.102Z,100124.19
2022-08-27T06:42:18.260Z,100121.66
2022-08-27T06:44:54.431Z,100121.78
2022-08-27T06:47:23.010Z,100125.38
2022-08-27T06:49:53.020Z,100124.75
2022-08-27T06:52:21.788Z,100121.47
2022-08-27T06:54:50.494Z,100117.47
2022-08-27T06:57:19.217Z,100125.63
2022-08-27T06:59:48.433Z,100130.91
2022-08-27T07:02:17.128Z,100130.97
2022-08-27T07:04:45.750Z,100116.06
2022-08-27T07:07:31.177Z,100125.94
2022-08-27T07:10:05.773Z,100128.91
2022-08-27T07:12:34.614Z,100121.41
2022-08-27T07:15:03.432Z,100118.09
2022-08-27T07:17:33.384Z,100120.44
2022-08-27T07:20:03.629Z,100120.44
2022-08-27T07:22:33.872Z,100098.41
2022-08-27T07:25:02.946Z,100110.53
2022-08-27T07:27:31.753Z,100117.03
2022-08-27T07:30:01.721Z,100114.50
2022-08-27T07:32:31.920Z,100122.22
2022-08-27T07:35:00.907Z,100123.06
2022-08-27T07:37:35.061Z,100121.00
2022-08-27T07:40:10.787Z,100120.59
2022-08-27T07:42:58.817Z,100115.91
2022-08-27T07:45:28.772Z,100125.28
2022-08-27T07:47:57.746Z,100120.78
2022-08-27T07:50:26.538Z,100126.22
2022-08-27T07:52:55.304Z,100122.50
2022-08-27T07:55:25.238Z,100112.88
2022-08-27T07:57:54.681Z,100114.53
2022-08-27T08:00:23.652Z,100117.75
2022-08-27T08:02:52.362Z,100113.97
2022-08-27T08:05:21.582Z,100112.88
2022-08-27T08:07:50.747Z,100114.03
2022-08-27T08:10:22.395Z,100111.53
2022-08-27T08:12:52.739Z,100116.22
2022-08-27T08:15:21.942Z,100116.16
2022-08-27T08:17:51.361Z,100118.13
2022-08-27T08:20:31.100Z,100121.69
2022-08-27T08:23:09.888Z,100115.47
2022-08-27T08:25:39.578Z,100108.84
2022-08-27T08:28:11.815Z,100111.31
2022-08-27T08:30:43.949Z,100113.78
2022-08-27T08:33:13.527Z,100112.53
2022-08-27T08:35:42.987Z,100113.75
2022-08-27T08:38:11.972Z,100114.56
2022-08-27T08:40:44.699Z,100124.22
2022-08-27T08:43:30.284Z,100124.88
2022-08-27T08:46:09.998Z,100122.06
2022-08-27T08:48:48.200Z,100115.53
2022-08-27T08:51:26.617Z,100109.44
2022-08-27T08:54:04.517Z,100115.69
2022-08-27T08:56:44.716Z,100117.19
2022-08-27T08:59:25.417Z,100115.97
2022-08-27T09:01:54.829Z,100115.59
2022-08-27T09:04:27.143Z,100112.31
2022-08-27T09:07:02.967Z,100107.81
2022-08-27T09:09:39.284Z,100107.19
2022-08-27T09:12:16.468Z,100112.31
2022-08-27T09:14:53.146Z,100113.16
2022-08-27T09:17:23.302Z,100103.47
2022-08-27T09:19:52.548Z,100106.03
2022-08-27T09:22:44.266Z,100106.69
2022-08-27T09:25:21.535Z,100103.72
2022-08-27T09:27:59.877Z,100102.78
2022-08-27T09:30:42.085Z,100097.47
2022-08-27T09:33:10.733Z,100106.13
2022-08-27T09:35:44.908Z,100102.09
2022-08-27T09:38:28.039Z,100104.03
2022-08-27T09:41:02.302Z,100103.34
2022-08-27T09:43:32.596Z,100106.84
2022-08-27T09:46:08.434Z,100096.28
2022-08-27T09:48:38.947Z,100095.69
2022-08-27T09:51:13.769Z,100097.13
2022-08-27T09:53:52.639Z,100094.84
2022-08-27T09:56:31.473Z,100096.41
2022-08-27T09:59:06.627Z,100088.63
2022-08-27T10:01:50.560Z,100090.28
2022-08-27T10:04:28.861Z,100081.88
2022-08-27T10:06:57.896Z,100092.69
2022-08-27T10:09:37.082Z,100090.88
2022-08-27T10:12:17.824Z,100073.13
2022-08-27T10:14:53.074Z,100088.50
2022-08-27T10:17:39.039Z,100084.72
2022-08-27T10:20:25.794Z,100079.47
2022-08-27T10:23:23.632Z,100072.09
2022-08-27T10:26:05.302Z,100074.25
2022-08-27T10:28:58.578Z,100078.44
2022-08-27T10:31:40.233Z,100071.81
2022-08-27T10:34:31.486Z,100071.44
2022-08-27T10:37:22.274Z,100067.13
2022-08-27T10:40:11.838Z,100067.44
2022-08-27T10:42:57.588Z,100058.31
2022-08-27T10:45:43.410Z,100067.66
2022-08-27T10:48:27.098Z,100057.56
2022-08-27T10:51:09.342Z,100050.84
2022-08-27T10:53:51.122Z,100053.63
2022-08-27T10:56:30.634Z,100050.19
2022-08-27T10:59:17.595Z,100051.25
2022-08-27T11:02:02.622Z,100053.75
2022-08-27T11:04:38.411Z,100052.53
2022-08-27T11:07:17.514Z,100039.34
2022-08-27T11:09:57.044Z,100044.19
2022-08-27T11:12:34.451Z,100048.25
2022-08-27T11:15:12.885Z,100040.91
2022-08-27T11:17:50.575Z,100049.25
2022-08-27T11:20:28.340Z,100046.19
2022-08-27T11:23:06.024Z,100040.81
2022-08-27T11:25:52.674Z,100042.34
2022-08-27T11:28:30.071Z,100045.72
2022-08-27T11:31:10.726Z,100029.88
2022-08-27T11:33:49.212Z,100045.72
2022-08-27T11:37:04.062Z,100040.91
2022-08-27T11:40:05.074Z,100040.22
2022-08-27T11:42:42.209Z,100037.41
2022-08-27T11:45:19.952Z,100038.22
2022-08-27T11:47:57.687Z,100039.50
2022-08-27T11:50:30.788Z,100051.09
2022-08-27T11:53:03.218Z,100036.13
2022-08-27T11:55:37.195Z,100042.13
2022-08-27T11:58:11.876Z,100044.91
2022-08-27T12:00:43.789Z,100032.28
2022-08-27T12:03:31.130Z,100033.22
2022-08-27T12:06:26.732Z,100041.09
2022-08-27T12:09:13.904Z,100036.81
2022-08-27T12:12:02.029Z,100033.56
2022-08-27T12:14:45.963Z,100037.19
2022-08-27T12:17:30.518Z,100039.72
2022-08-27T12:20:19.580Z,100033.38
2022-08-27T12:23:35.639Z,100038.00
2022-08-27T12:26:32.750Z,100029.53
2022-08-27T12:29:29.320Z,100019.00
2022-08-27T12:32:15.657Z,100020.69
2022-08-27T12:34:59.638Z,100015.00
2022-08-27T12:37:34.852Z,100020.03
2022-08-27T12:40:19.853Z,100019.41
2022-08-27T12:42:49.633Z,100022.22
2022-08-27T12:45:26.886Z,100010.91
2022-08-27T12:47:57.024Z,100013.16
2022-08-27T12:50:30.630Z,100014.84
2022-08-27T12:53:27.372Z,100016.63
2022-08-27T12:56:13.480Z,100014.94
2022-08-27T12:58:53.599Z,100018.53
2022-08-27T13:01:50.194Z,100016.72
2022-08-27T13:04:26.494Z,100009.88
2022-08-27T13:06:55.772Z,100015.31
2022-08-27T13:09:31.562Z,100003.66
2022-08-27T13:12:04.576Z,100005.50
2022-08-27T13:14:39.414Z,100003.41
2022-08-27T13:17:15.918Z,100004.78
2022-08-27T13:19:51.028Z,100012.50
2022-08-27T13:22:26.183Z,100007.16
2022-08-27T13:24:57.313Z,100005.50
2022-08-27T13:27:31.121Z,100015.97
2022-08-27T13:30:06.632Z,100013.34
2022-08-27T13:32:39.292Z,100007.72
2022-08-27T13:35:10.002Z,100013.03
2022-08-27T13:37:46.853Z,100008.75
2022-08-27T13:40:28.933Z,100013.00
2022-08-27T13:43:05.040Z,100011.22
2022-08-27T13:45:41.660Z,100010.38
2022-08-27T13:48:14.321Z,100005.22
2022-08-27T13:50:53.184Z,100008.53
2022-08-27T13:53:46.216Z,99998.78
2022-08-27T13:56:28.211Z,99999.28
2022-08-27T13:58:57.162Z,99998.81
2022-08-27T14:01:33.023Z,99996.88
2022-08-27T14:04:06.924Z,99990.16
2022-08-27T14:06:43.135Z,99996.31
2022-08-27T14:09:18.918Z,99988.28
2022-08-27T14:11:48.274Z,99989.84
2022-08-27T14:14:19.795Z,99991.28
2022-08-27T14:17:00.296Z,99989.69
2022-08-27T14:19:36.197Z,99990.84
2022-08-27T14:22:06.264Z,99983.84
2022-08-27T14:24:35.172Z,99984.63
2022-08-27T14:27:09.401Z,99983.69
2022-08-27T14:29:38.815Z,99986.69
2022-08-27T14:32:07.851Z,99988.53
2022-08-27T14:34:38.427Z,99984.63
2022-08-27T14:37:07.869Z,99983.94
2022-08-27T14:39:36.693Z,99982.91
2022-08-27T14:42:07.103Z,99980.78
2022-08-27T14:44:39.139Z,99979.53
2022-08-27T14:47:10.217Z,99986.75
2022-08-27T14:49:45.103Z,99975.22
2022-08-27T14:52:16.597Z,99977.50
2022-08-27T14:54:45.896Z,99979.31
2022-08-27T14:57:15.559Z,99976.25
2022-08-27T14:59:44.418Z,99980.34
2022-08-27T15:02:15.085Z,99973.03
2022-08-27T15:04:47.867Z,99972.44
2022-08-27T15:07:17.342Z,99976.19
2022-08-27T15:09:47.322Z,99966.69
2022-08-27T15:12:26.451Z,99967.88
2022-08-27T15:14:56.347Z,99971.88
2022-08-27T15:17:35.099Z,99973.94
2022-08-27T15:20:13.647Z,99970.41
2022-08-27T15:22:50.899Z,99974.13
2022-08-27T15:25:21.613Z,99976.81
2022-08-27T15:27:51.125Z,99973.63
2022-08-27T15:30:27.194Z,99973.63
2022-08-27T15:32:57.154Z,99967.28
2022-08-27T15:35:28.821Z,99964.75
2022-08-27T15:37:59.545Z,99956.44
2022-08-27T15:40:32.760Z,99963.09
2022-08-27T15:43:06.279Z,99961.88
2022-08-27T15:45:36.775Z,99960.66
2022-08-27T15:48:06.402Z,99961.16
2022-08-27T15:50:36.483Z,99958.91
2022-08-27T15:53:09.947Z,99953.50
2022-08-27T15:55:43.379Z,99956.72
2022-08-27T15:58:13.023Z,99956.78
2022-08-27T16:00:46.475Z,99956.78
2022-08-27T16:03:17.307Z,99952.84
2022-08-27T16:05:48.485Z,99948.75
2022-08-27T16:08:17.063Z,99946.28
2022-08-27T16:10:45.677Z,99949.47
2022-08-27T16:13:14.467Z,99950.34
2022-08-27T16:15:43.943Z,99949.53
2022-08-27T16:18:13.916Z,99950.03
2022-08-27T16:20:43.455Z,99952.13
2022-08-27T16:23:14.085Z,99945.34
2022-08-27T16:25:42.822Z,99952.44
2022-08-27T16:28:12.460Z,99951.16
2022-08-27T16:30:41.969Z,99959.13
2022-08-27T16:33:12.064Z,99953.84
2022-08-27T16:35:42.485Z,99958.22
2022-08-27T16:38:13.761Z,99953.97
2022-08-27T16:40:47.905Z,99955.28
2022-08-27T16:43:21.311Z,99954.91
2022-08-27T16:45:51.975Z,99950.88
2022-08-27T16:48:39.570Z,99951.16
2022-08-27T16:51:14.135Z,99953.75
2022-08-27T16:53:47.504Z,99952.75
2022-08-27T16:56:18.103Z,99951.09
2022-08-27T16:58:50.788Z,99953.00
2022-08-27T17:01:23.371Z,99956.88
2022-08-27T17:04:08.783Z,99957.44
2022-08-27T17:06:42.327Z,99965.97
2022-08-27T17:09:13.370Z,99964.84
2022-08-27T17:11:44.519Z,99965.63
2022-08-27T17:14:13.533Z,99974.41
2022-08-27T17:16:43.372Z,99967.47
2022-08-27T17:19:16.868Z,99971.91
2022-08-27T17:21:47.014Z,99971.28
2022-08-27T17:24:17.019Z,99977.56
2022-08-27T17:26:45.837Z,99979.72
2022-08-27T17:29:14.667Z,99984.69
2022-08-27T17:31:44.648Z,99985.50
2022-08-27T17:34:18.132Z,99987.25
2022-08-27T17:36:47.233Z,99993.50
2022-08-27T17:39:17.803Z,99992.91
2022-08-27T17:41:50.835Z,99997.25
2022-08-27T17:44:25.227Z,99996.84
2022-08-27T17:46:56.619Z,100002.22
2022-08-27T17:49:26.923Z,99998.09
2022-08-27T17:52:00.406Z,100002.66
2022-08-27T17:54:36.071Z,100000.75
2022-08-27T17:57:11.680Z,100003.63
2022-08-27T17:59:40.466Z,100003.66
2022-08-27T18:02:11.161Z,100009.44
2022-08-27T18:04:39.758Z,100006.53
2022-08-27T18:07:08.537Z,100012.50
2022-08-27T18:09:38.515Z,100019.09
2022-08-27T18:12:08.240Z,100020.56
2022-08-27T18:14:37.316Z,100019.53
2022-08-27T18:17:06.076Z,100020.94
2022-08-27T18:19:35.025Z,100026.94
2022-08-27T18:22:06.455Z,100022.38
2022-08-27T18:24:35.068Z,100018.00
2022-08-27T18:27:05.445Z,100030.38
2022-08-27T18:29:34.818Z,100030.31
2022-08-27T18:32:05.056Z,100024.72
2022-08-27T18:34:33.728Z,100032.72
2022-08-27T18:37:02.541Z,100038.72
2022-08-27T18:39:31.361Z,100037.44
2022-08-27T18:42:01.282Z,100042.59
2022-08-27T18:44:36.516Z,100055.38
2022-08-27T18:47:05.904Z,100040.25
2022-08-27T18:49:34.819Z,100045.38
2022-08-27T18:52:03.889Z,100047.81
2022-08-27T18:54:32.972Z,100055.81
2022-08-27T18:57:01.886Z,100061.13
2022-08-27T18:59:32.364Z,100063.28
2022-08-27T19:02:02.216Z,100066.34
2022-08-27T19:04:35.165Z,100068.03
2022-08-27T19:07:03.853Z,100070.66
2022-08-27T19:09:32.685Z,100074.47
2022-08-27T19:12:01.237Z,100074.28
2022-08-27T19:14:31.165Z,100074.91
2022-08-27T19:17:03.538Z,100072.47
2022-08-27T19:19:32.575Z,100075.03
2022-08-27T19:22:06.760Z,100082.50
2022-08-27T19:24:37.435Z,100079.81
2022-08-27T19:27:09.303Z,100078.59
2022-08-27T19:29:39.213Z,100078.06
2022-08-27T19:32:07.996Z,100080.53
2022-08-27T19:34:36.978Z,100074.16
2022-08-27T19:37:09.409Z,100070.34
2022-08-27T19:39:39.268Z,100082.59
2022-08-27T19:42:08.403Z,100078.41
2022-08-27T19:44:38.792Z,100086.88
2022-08-27T19:47:11.942Z,100082.25
2022-08-27T19:49:41.985Z,100082.97
2022-08-27T19:52:10.774Z,100089.13
2022-08-27T19:54:56.855Z,100090.91
2022-08-27T19:57:28.130Z,100087.72
2022-08-27T19:59:58.039Z,100089.94
2022-08-27T20:02:27.418Z,100084.91
2022-08-27T20:05:17.082Z,100096.00
2022-08-27T20:07:44.891Z,100082.59
2022-08-27T20:10:13.989Z,100093.84
2022-08-27T20:12:45.065Z,100090.13
2022-08-27T20:15:15.699Z,100089.22
2022-08-27T20:17:45.098Z,100085.66
2022-08-27T20:20:14.824Z,100089.53
2022-08-27T20:22:44.215Z,100092.31
2022-08-27T20:25:13.716Z,100094.44
2022-08-27T20:27:43.684Z,100089.00
2022-08-27T20:30:16.959Z,100093.22
2022-08-27T20:32:47.216Z,100086.72
2022-08-27T20:35:17.504Z,100077.88
2022-08-27T20:37:47.099Z,100082.59
2022-08-27T20:40:22.436Z,100085.28
2022-08-27T20:42:51.239Z,100093.47
2022-08-27T20:45:21.857Z,100094.31
2022-08-27T20:47:52.720Z,100088.66
2022-08-27T20:50:23.737Z,100089.03
2022-08-27T20:52:53.173Z,100091.44
2022-08-27T20:55:23.654Z,100086.66
2022-08-27T20:58:10.285Z,100089.41
2022-08-27T21:00:44.069Z,100095.47
2022-08-27T21:03:15.787Z,100092.69
2022-08-27T21:05:47.181Z,100085.41
2022-08-27T21:08:19.367Z,100085.09
2022-08-27T21:10:50.342Z,100084.44
2022-08-27T21:13:21.747Z,100095.13
2022-08-27T21:15:55.496Z,100086.47
2022-08-27T21:18:29.759Z,100079.81
2022-08-27T21:20:59.215Z,100081.84
2022-08-27T21:23:29.168Z,100084.69
2022-08-27T21:26:02.501Z,100081.72
2022-08-27T21:28:33.979Z,100076.09
2022-08-27T21:31:03.964Z,100077.41
2022-08-27T21:33:34.195Z,100078.78
2022-08-27T21:36:12.008Z,100073.16
2022-08-27T21:38:42.023Z,100074.16
2022-08-27T21:41:10.801Z,100073.84
2022-08-27T21:43:39.414Z,100072.09
2022-08-27T21:46:09.552Z,100072.25
2022-08-27T21:48:39.449Z,100069.28
2022-08-27T21:51:10.037Z,100070.94
2022-08-27T21:53:39.406Z,100077.31
2022-08-27T21:56:08.890Z,100074.97
2022-08-27T21:58:38.579Z,100073.69
2022-08-27T22:01:09.293Z,100075.19
2022-08-27T22:03:38.277Z,100073.59
2022-08-27T22:06:08.139Z,100067.13
2022-08-27T22:08:36.928Z,100062.94
2022-08-27T22:11:06.638Z,100064.50
2022-08-27T22:13:35.247Z,100063.84
2022-08-27T22:16:05.205Z,100056.00
2022-08-27T22:18:35.907Z,100050.28
2022-08-27T22:21:08.141Z,100057.66
2022-08-27T22:23:36.776Z,100050.84
2022-08-27T22:26:05.685Z,100055.69
2022-08-27T22:28:34.443Z,100055.88
2022-08-27T22:31:03.191Z,100059.97
2022-08-27T22:33:31.800Z,100059.66
2022-08-27T22:36:02.501Z,100056.19
2022-08-27T22:38:31.081Z,100047.91
2022-08-27T22:40:59.684Z,100049.28
2022-08-27T22:43:30.043Z,100052.44
2022-08-27T22:45:58.877Z,100049.81
2022-08-27T22:48:27.487Z,100048.66
2022-08-27T22:50:56.253Z,100048.34
2022-08-27T22:53:26.152Z,100046.81
2022-08-27T22:55:56.413Z,100049.00
2022-08-27T22:58:25.265Z,100047.69
2022-08-27T23:00:55.751Z,100048.38
2022-08-27T23:03:24.479Z,100048.53
2022-08-27T23:05:53.323Z,100043.72
2022-08-27T23:08:23.090Z,100051.25
2022-08-27T23:10:54.670Z,100044.06
2022-08-27T23:13:23.597Z,100037.38
2022-08-27T23:15:52.142Z,100041.91
2022-08-27T23:18:20.742Z,100037.75
2022-08-27T23:20:49.459Z,100052.41
2022-08-27T23:23:20.244Z,100040.44
2022-08-27T23:26:06.765Z,100040.44
2022-08-27T23:28:36.928Z,100039.59
2022-08-27T23:31:05.626Z,100035.09
2022-08-27T23:33:34.253Z,100034.13
2022-08-27T23:36:03.541Z,100042.09
2022-08-27T23:38:32.145Z,100036.78
2022-08-27T23:41:00.988Z,100036.09
2022-08-27T23:43:30.227Z,100035.41
2022-08-27T23:46:00.272Z,100033.06
2022-08-27T23:48:28.970Z,100036.25
2022-08-27T23:50:57.878Z,100036.25
2022-08-27T23:53:26.678Z,100037.25
2022-08-27T23:55:55.538Z,100029.41
2022-08-27T23:58:24.374Z,100033.44
